Time;durP1;ratioP1;P1;durP2;ratioP2;P2;SDS_P1;SDS_P2;PMS_P1;PMS_P2;Temp;Humidity;BMP_temperature;BMP_pressure;BME280_temperature;BME280_humidity;BME280_pressure;Samples;Min_cycle;Max_cycle;Signal;HPM_P1;HPM_P2
2022/08/31 00:05:43;;;;;;;5.30;2.00;;;;;;;15.94;78.28;101956.09;4938614;29;20152;-82
2022/08/31 00:08:09;;;;;;;3.75;2.38;;;;;;;15.96;78.45;101961.22;4939761;29;20035;-82
2022/08/31 00:10:39;;;;;;;2.90;2.30;;;;;;;15.98;79.13;101953.66;4934026;29;20220;-82
2022/08/31 00:13:05;;;;;;;3.13;2.50;;;;;;;15.93;79.30;101948.25;4945544;28;20122;-82
2022/08/31 00:15:30;;;;;;;2.40;2.20;;;;;;;15.95;78.92;101956.91;4944895;28;20114;-82
2022/08/31 00:17:56;;;;;;;2.60;2.37;;;;;;;15.92;79.49;101947.44;4947276;29;20035;-82
2022/08/31 00:20:23;;;;;;;3.30;2.35;;;;;;;15.89;78.97;101956.06;4951082;28;20045;-82
2022/08/31 00:22:48;;;;;;;4.10;2.60;;;;;;;15.85;79.88;101954.94;4962813;28;20024;-82
2022/08/31 00:25:14;;;;;;;6.50;2.60;;;;;;;15.85;80.86;101952.25;4936363;29;20043;-82
2022/08/31 00:27:40;;;;;;;4.43;2.60;;;;;;;15.85;80.97;101953.09;4934012;29;20031;-82
2022/08/31 00:30:07;;;;;;;3.70;2.33;;;;;;;15.83;80.20;101949.00;4933591;29;20034;-82
2022/08/31 00:32:33;;;;;;;4.65;2.22;;;;;;;15.77;80.59;101955.47;4951562;29;20524;-82
2022/08/31 00:34:58;;;;;;;3.25;2.50;;;;;;;15.78;80.43;101943.59;4950764;28;20070;-82
2022/08/31 00:37:24;;;;;;;3.57;2.30;;;;;;;15.73;81.25;101947.06;4952592;29;20059;-82
2022/08/31 00:39:50;;;;;;;2.38;2.17;;;;;;;15.75;80.97;101951.16;4950054;28;20028;-82
2022/08/31 00:42:15;;;;;;;5.73;2.47;;;;;;;15.72;81.21;101942.75;4946491;28;20042;-82
2022/08/31 00:44:40;;;;;;;2.80;2.53;;;;;;;15.74;81.71;101954.09;4945709;28;20546;-81
2022/08/31 00:47:06;;;;;;;3.00;2.40;;;;;;;15.77;81.35;101941.97;4933849;29;20039;-82
2022/08/31 00:49:34;;;;;;;4.47;2.40;;;;;;;15.74;80.89;101954.94;4934264;29;20658;-84
2022/08/31 00:52:18;;;;;;;3.75;2.53;;;;;;;15.72;80.24;101942.75;4937859;29;20115;-84
2022/08/31 00:54:55;;;;;;;5.03;2.53;;;;;;;15.69;81.02;101944.09;4933753;29;20034;-84
2022/08/31 00:57:21;;;;;;;6.90;2.30;;;;;;;15.66;81.73;101941.13;4941391;29;20139;-83
2022/08/31 00:59:48;;;;;;;3.03;2.27;;;;;;;15.60;81.72;101946.50;4951898;28;20318;-83
2022/08/31 01:02:14;;;;;;;3.38;2.50;;;;;;;15.62;81.82;101940.00;4943712;28;20038;-83
2022/08/31 01:04:39;;;;;;;4.97;2.50;;;;;;;15.55;82.53;101934.88;4933709;29;20036;-83
2022/08/31 01:07:06;;;;;;;3.20;2.37;;;;;;;15.56;82.05;101950.78;4932349;29;20480;-83
2022/08/31 01:09:38;;;;;;;6.45;2.42;;;;;;;15.52;82.31;101951.59;4933248;29;20031;-83
2022/08/31 01:12:05;;;;;;;4.93;2.90;;;;;;;15.55;82.34;101959.19;4933163;29;20028;-83
2022/08/31 01:14:31;;;;;;;2.50;2.30;;;;;;;15.51;83.35;101945.41;4939904;28;20376;-83
2022/08/31 01:16:56;;;;;;;4.65;2.40;;;;;;;15.53;82.86;101945.91;4952522;28;20046;-83
2022/08/31 01:19:44;;;;;;;2.70;2.13;;;;;;;15.50;81.69;101932.97;4944052;29;20063;-83
2022/08/31 01:22:15;;;;;;;6.63;2.40;;;;;;;15.51;82.22;101939.16;4933127;29;20468;-85
2022/08/31 01:24:44;;;;;;;2.90;2.55;;;;;;;15.46;82.69;101929.16;4933365;29;20027;-83
2022/08/31 01:27:12;;;;;;;7.60;2.80;;;;;;;15.48;83.08;101939.69;4938303;29;20066;-83
2022/08/31 01:29:38;;;;;;;3.03;2.20;;;;;;;15.47;82.84;101935.34;4951328;28;20172;-83
2022/08/31 01:32:04;;;;;;;2.57;2.33;;;;;;;15.48;82.44;101943.22;4945063;28;20080;-82
2022/08/31 01:34:30;;;;;;;4.03;2.50;;;;;;;15.39;83.14;101939.38;4952526;29;20027;-83
2022/08/31 01:36:56;;;;;;;4.25;2.45;;;;;;;15.37;83.56;101946.94;4952257;28;20079;-83
2022/08/31 01:39:21;;;;;;;4.13;2.60;;;;;;;15.34;83.45;101944.78;4952476;28;20061;-83
2022/08/31 01:41:47;;;;;;;2.77;2.17;;;;;;;15.34;83.69;101945.56;4949405;29;20035;-83
2022/08/31 01:44:15;;;;;;;3.80;2.63;;;;;;;15.31;83.45;101939.91;4952240;29;20306;-83
2022/08/31 01:46:41;;;;;;;4.45;2.50;;;;;;;15.32;83.82;101941.53;4952731;28;20166;-83
2022/08/31 01:49:07;;;;;;;4.07;2.63;;;;;;;15.27;83.28;101943.13;4951742;28;20125;-83
2022/08/31 01:51:33;;;;;;;2.70;2.50;;;;;;;15.26;83.54;101949.59;4951809;28;20031;-83
2022/08/31 01:53:58;;;;;;;4.10;2.50;;;;;;;15.24;84.20;101946.34;4948865;29;20503;-83
2022/08/31 01:56:46;;;;;;;4.97;4.00;;;;;;;15.22;83.78;101956.56;4933142;29;20099;-83
2022/08/31 01:59:13;;;;;;;3.10;2.80;;;;;;;15.22;84.28;101948.47;4932706;29;20414;-83
2022/08/31 02:01:44;;;;;;;4.03;2.40;;;;;;;15.24;83.39;101959.03;4941031;29;20122;-83
2022/08/31 02:04:14;;;;;;;3.70;2.70;;;;;;;15.16;83.93;101951.41;4951958;29;20163;-83
2022/08/31 02:06:42;;;;;;;5.57;2.40;;;;;;;15.14;84.50;101947.09;4951077;29;20118;-83
2022/08/31 02:09:08;;;;;;;3.40;2.60;;;;;;;15.13;84.57;101956.25;4951988;28;20286;-83
2022/08/31 02:11:37;;;;;;;4.10;2.58;;;;;;;15.17;84.47;101956.53;4950441;29;20146;-83
2022/08/31 02:14:03;;;;;;;2.90;2.53;;;;;;;15.13;84.52;101955.47;4951867;29;20031;-84
2022/08/31 02:16:29;;;;;;;5.82;2.20;;;;;;;15.13;84.45;101956.25;4951734;29;20395;-83
2022/08/31 02:18:54;;;;;;;3.33;2.30;;;;;;;15.11;84.71;101950.31;4951292;28;20027;-83
2022/08/31 02:21:20;;;;;;;3.37;2.47;;;;;;;15.04;85.26;101955.13;4951672;28;20085;-83
2022/08/31 02:23:45;;;;;;;5.13;2.50;;;;;;;15.01;85.26;101954.81;4951421;28;20318;-83
2022/08/31 02:26:11;;;;;;;5.10;2.40;;;;;;;14.93;85.29;101950.72;4951809;28;20035;-83
2022/08/31 02:28:36;;;;;;;5.68;2.65;;;;;;;14.94;85.23;101955.88;4936269;28;20118;-83
2022/08/31 02:31:02;;;;;;;3.47;2.33;;;;;;;14.92;85.72;101958.03;4931019;29;20060;-83
2022/08/31 02:33:28;;;;;;;4.55;2.70;;;;;;;14.87;85.91;101962.59;4932570;29;20476;-83
2022/08/31 02:35:53;;;;;;;5.83;2.37;;;;;;;14.83;85.55;101962.25;4942731;29;20035;-83
2022/08/31 02:38:18;;;;;;;2.80;2.50;;;;;;;14.80;86.15;101965.47;4951895;28;20643;-83
2022/08/31 02:40:52;;;;;;;2.90;2.58;;;;;;;14.80;85.80;101968.16;4950789;28;20043;-83
2022/08/31 02:43:20;;;;;;;4.70;2.37;;;;;;;14.73;85.82;101964.91;4947940;28;20110;-83
2022/08/31 02:45:46;;;;;;;4.57;2.80;;;;;;;14.71;86.18;101962.44;4936288;28;20288;-83
2022/08/31 02:48:11;;;;;;;2.92;2.20;;;;;;;14.65;86.00;101960.75;4936106;29;20027;-83
2022/08/31 02:50:42;;;;;;;5.93;2.63;;;;;;;14.66;86.12;101965.09;4935760;29;20443;-83
2022/08/31 02:53:08;;;;;;;2.90;2.30;;;;;;;14.58;86.79;101960.97;4935683;29;20028;-83
2022/08/31 02:55:34;;;;;;;3.05;2.47;;;;;;;14.51;86.71;101952.28;4936212;28;20027;-83
2022/08/31 02:57:59;;;;;;;4.00;2.70;;;;;;;14.55;86.76;101956.09;4935530;29;20034;-84
2022/08/31 03:00:24;;;;;;;5.33;2.60;;;;;;;14.49;87.06;101949.84;4939070;29;20507;-83
2022/08/31 03:02:50;;;;;;;6.00;2.73;;;;;;;14.47;86.97;101945.78;4954986;28;20062;-83
2022/08/31 03:05:16;;;;;;;3.10;2.40;;;;;;;14.46;86.82;101949.53;4954818;28;20035;-83
2022/08/31 03:07:41;;;;;;;5.50;2.57;;;;;;;14.44;87.10;101951.66;4955148;28;20275;-83
2022/08/31 03:10:13;;;;;;;11.27;2.65;;;;;;;14.42;87.40;101948.44;4954075;28;20478;-83
2022/08/31 03:12:39;;;;;;;3.37;2.63;;;;;;;14.39;87.43;101947.88;4953142;28;20031;-84
2022/08/31 03:15:07;;;;;;;7.50;2.63;;;;;;;14.31;87.45;101948.34;4954477;28;20038;-83
2022/08/31 03:17:32;;;;;;;6.10;2.40;;;;;;;14.24;87.32;101947.75;4936210;28;20082;-83
2022/08/31 03:19:59;;;;;;;4.80;2.22;;;;;;;14.18;87.65;101951.44;4934928;29;20118;-83
2022/08/31 03:22:28;;;;;;;3.03;2.70;;;;;;;14.16;88.38;101950.88;4935691;29;20526;-83
2022/08/31 03:24:54;;;;;;;3.10;2.22;;;;;;;14.16;88.41;101951.69;4935519;29;20035;-84
2022/08/31 03:27:20;;;;;;;3.53;2.47;;;;;;;14.17;87.97;101939.03;4935492;29;20028;-83
2022/08/31 03:29:45;;;;;;;4.63;2.67;;;;;;;14.18;88.06;101948.75;4934960;29;20016;-83
2022/08/31 03:32:10;;;;;;;6.63;2.37;;;;;;;14.11;87.73;101948.13;4938713;29;20031;-83
2022/08/31 03:34:36;;;;;;;3.20;2.37;;;;;;;14.06;88.19;101944.31;4968092;28;20031;-83
2022/08/31 03:37:01;;;;;;;4.13;2.37;;;;;;;14.05;88.06;101952.66;4953938;28;20058;-83
2022/08/31 03:39:27;;;;;;;4.10;2.63;;;;;;;14.07;87.64;101958.63;4954287;28;20023;-83
2022/08/31 03:41:52;;;;;;;4.73;2.33;;;;;;;14.01;87.93;101968.53;4954013;28;20082;-83
2022/08/31 03:44:22;;;;;;;4.60;2.07;;;;;;;13.99;88.22;101961.75;4954008;29;20027;-83
2022/08/31 03:46:49;;;;;;;3.47;1.95;;;;;;;13.95;88.23;101960.66;4953736;29;20483;-83
2022/08/31 03:49:15;;;;;;;2.60;2.40;;;;;;;13.90;88.30;101958.69;4941274;28;20059;-83
2022/08/31 03:51:40;;;;;;;3.05;2.25;;;;;;;13.86;88.21;101962.97;4934939;29;20024;-84
2022/08/31 03:54:05;;;;;;;5.50;2.37;;;;;;;13.84;88.46;101962.41;4935116;29;20086;-83
2022/08/31 03:56:31;;;;;;;3.00;2.67;;;;;;;13.83;88.49;101958.88;4954327;29;20105;-84
2022/08/31 03:58:56;;;;;;;3.20;2.58;;;;;;;13.75;88.06;101960.16;4953076;28;20055;-83
2022/08/31 04:01:21;;;;;;;5.20;2.17;;;;;;;13.74;87.91;101961.22;4954146;29;20054;-84
2022/08/31 04:03:47;;;;;;;3.87;2.30;;;;;;;13.66;88.05;101958.97;4953588;28;20031;-84
2022/08/31 04:06:12;;;;;;;3.13;2.30;;;;;;;13.73;87.93;101961.47;4936125;29;20035;-83
2022/08/31 04:08:39;;;;;;;2.63;2.43;;;;;;;13.70;87.78;101964.66;4934810;29;20111;-84
2022/08/31 04:11:14;;;;;;;2.72;2.35;;;;;;;13.62;87.87;101963.22;4934656;29;20394;-83
2022/08/31 04:13:40;;;;;;;2.70;2.25;;;;;;;13.65;87.82;101960.03;4935061;29;20176;-83
2022/08/31 04:16:11;;;;;;;4.43;2.38;;;;;;;13.60;88.18;101959.97;4934679;29;20102;-83
2022/08/31 04:18:42;;;;;;;4.57;2.50;;;;;;;13.62;87.92;101957.84;4934545;29;20062;-84
2022/08/31 04:21:18;;;;;;;2.58;2.33;;;;;;;13.58;87.48;101959.41;4936300;28;20187;-83
2022/08/31 04:23:45;;;;;;;3.90;2.50;;;;;;;13.57;87.94;101958.59;4934726;29;20051;-83
2022/08/31 04:26:45;;;;;;;2.27;1.90;;;;;;;13.47;87.10;101961.97;4934288;29;20415;-83
2022/08/31 04:29:11;;;;;;;2.55;1.88;;;;;;;13.53;86.91;101964.72;4950899;29;20038;-83
2022/08/31 04:31:36;;;;;;;3.72;2.22;;;;;;;13.54;87.10;101963.66;4937194;29;20555;-83
2022/08/31 04:34:02;;;;;;;2.33;2.13;;;;;;;13.52;86.82;101981.94;4934315;29;20055;-83
2022/08/31 04:36:28;;;;;;;2.72;1.85;;;;;;;13.54;86.09;101982.50;4935687;29;20027;-83
2022/08/31 04:38:57;;;;;;;4.82;1.95;;;;;;;13.53;86.19;101980.88;4940320;29;20027;-83
2022/08/31 04:41:25;;;;;;;4.13;2.00;;;;;;;13.42;85.66;101964.59;4952288;28;21793;-84
2022/08/31 04:43:52;;;;;;;2.67;2.00;;;;;;;13.43;85.71;101982.38;4967769;28;20031;-83
2022/08/31 04:46:23;;;;;;;4.60;2.22;;;;;;;13.40;86.06;101977.50;4953597;29;20027;-83
2022/08/31 04:48:49;;;;;;;5.65;2.00;;;;;;;13.41;85.34;101978.31;4952874;28;20028;-83
2022/08/31 04:51:23;;;;;;;4.00;1.77;;;;;;;13.41;85.23;101979.13;4946642;28;20051;-83
2022/08/31 04:53:49;;;;;;;4.22;1.98;;;;;;;13.41;84.90;101978.31;4933484;29;20479;-84
2022/08/31 04:56:20;;;;;;;3.03;1.77;;;;;;;13.37;84.69;101969.06;4934582;28;20063;-84
2022/08/31 04:58:52;;;;;;;3.33;1.77;;;;;;;13.32;85.06;101977.91;4933950;29;20047;-84
2022/08/31 05:01:22;;;;;;;2.55;2.00;;;;;;;13.31;85.20;101981.66;4933818;29;20110;-83
2022/08/31 05:03:54;;;;;;;2.13;1.60;;;;;;;13.24;85.52;101972.94;4933993;29;20031;-83
2022/08/31 05:06:23;;;;;;;5.60;2.50;;;;;;;13.24;85.90;101981.00;4933233;29;20284;-84
2022/08/31 05:08:54;;;;;;;3.53;2.00;;;;;;;13.24;85.67;101978.31;4946079;28;20043;-84
2022/08/31 05:11:20;;;;;;;2.80;1.90;;;;;;;13.20;85.73;101982.56;4952357;29;20494;-83
2022/08/31 05:13:46;;;;;;;4.63;1.90;;;;;;;13.16;86.07;101974.97;4953196;28;20027;-84
2022/08/31 05:16:14;;;;;;;5.40;1.98;;;;;;;13.15;86.21;101988.69;4952599;29;20023;-84
2022/08/31 05:18:42;;;;;;;3.83;1.95;;;;;;;13.12;86.34;101984.63;4952631;28;20035;-84
2022/08/31 05:21:14;;;;;;;2.95;1.80;;;;;;;13.13;86.13;101978.19;4951760;28;20035;-84
2022/08/31 05:23:41;;;;;;;3.13;2.10;;;;;;;13.17;86.27;101987.38;4947157;29;20396;-84
2022/08/31 05:26:07;;;;;;;5.13;1.97;;;;;;;13.18;86.07;101988.19;4937542;29;20134;-84
2022/08/31 05:28:34;;;;;;;1.87;1.63;;;;;;;13.21;85.84;101995.78;4953155;28;20379;-87
2022/08/31 05:31:00;;;;;;;3.63;2.03;;;;;;;13.18;85.56;101993.56;4951461;28;20027;-90
2022/08/31 05:33:28;;;;;;;2.78;2.20;;;;;;;13.18;85.78;101991.69;4950839;28;20063;-89
2022/08/31 05:35:54;;;;;;;3.53;1.90;;;;;;;13.27;85.20;101993.97;4951663;28;20023;-88
2022/08/31 05:38:19;;;;;;;3.33;1.93;;;;;;;13.24;85.55;101991.78;4952563;28;20027;-88
2022/08/31 05:45:55;;;;;;;4.03;2.50;;;;;;;13.41;84.12;102000.66;5494470;23;20313;-86
2022/08/31 05:48:20;;;;;;;2.33;2.00;;;;;;;13.42;83.51;101990.72;4970525;28;20563;-90
2022/08/31 05:50:46;;;;;;;2.70;2.20;;;;;;;13.50;83.30;102000.25;4971386;28;20545;-88
2022/08/31 05:53:12;;;;;;;3.50;2.00;;;;;;;13.54;82.47;101993.28;4963242;28;20452;-87
2022/08/31 05:55:37;;;;;;;6.40;2.00;;;;;;;13.62;82.38;102000.94;4951233;29;20399;-85
2022/08/31 05:58:03;;;;;;;4.05;1.95;;;;;;;13.64;81.42;101998.81;4951793;28;20035;-84
2022/08/31 06:03:04;;;;;;;2.40;1.77;;;;;;;13.69;81.15;102006.13;5626911;23;20303;-84
2022/08/31 06:05:29;;;;;;;5.38;2.00;;;;;;;13.66;80.93;102002.06;4950344;28;20063;-86
2022/08/31 06:07:55;;;;;;;3.53;1.87;;;;;;;13.75;79.99;102007.84;4951349;28;20108;-84
2022/08/31 06:10:21;;;;;;;2.80;1.63;;;;;;;13.82;80.34;102005.75;4933982;29;20016;-83
2022/08/31 06:12:47;;;;;;;1.77;1.67;;;;;;;13.87;80.11;102013.91;4932787;29;20023;-83
2022/08/31 06:15:14;;;;;;;6.93;1.90;;;;;;;13.97;79.84;102017.81;4929568;29;20024;-83
2022/08/31 06:17:40;;;;;;;6.97;2.20;;;;;;;14.02;79.16;102021.38;4923556;29;20043;-84
2022/08/31 06:20:07;;;;;;;3.45;1.98;;;;;;;14.02;78.70;102013.28;4928591;29;20140;-83
2022/08/31 06:22:35;;;;;;;4.85;1.90;;;;;;;14.13;78.30;102021.47;4932785;29;20028;-84
2022/08/31 06:25:00;;;;;;;2.97;1.83;;;;;;;14.23;77.92;102022.41;4936290;29;20039;-86
2022/08/31 06:27:26;;;;;;;4.10;1.97;;;;;;;14.27;77.27;102032.69;4935403;28;20028;-84
2022/08/31 06:29:51;;;;;;;4.35;1.52;;;;;;;14.29;76.63;102022.47;4932302;29;20459;-84
2022/08/31 06:32:18;;;;;;;4.00;1.60;;;;;;;14.44;76.55;102040.66;4934996;29;20047;-84
2022/08/31 06:34:44;;;;;;;6.55;2.00;;;;;;;14.53;76.13;102037.25;4936701;29;20027;-84
2022/08/31 06:37:11;;;;;;;5.47;1.90;;;;;;;14.65;75.76;102039.78;4936179;29;20391;-84
2022/08/31 06:55:08;;;;;;;2.92;1.60;;;;;;;15.72;70.18;102050.81;5843682;23;20311;-83
2022/08/31 06:57:36;;;;;;;5.15;1.80;;;;;;;15.87;69.12;102045.53;4954452;28;20039;-86
2022/08/31 07:00:01;;;;;;;4.23;1.60;;;;;;;15.87;68.79;102059.06;4937409;28;20026;-84
2022/08/31 07:02:26;;;;;;;6.27;2.13;;;;;;;15.80;69.04;102061.13;4935205;29;20303;-83
2022/08/31 07:04:52;;;;;;;5.47;1.50;;;;;;;15.74;68.87;102054.06;4935391;29;20060;-84
2022/08/31 07:07:17;;;;;;;4.97;1.77;;;;;;;15.68;68.99;102057.84;4935140;28;21766;-85
2022/08/31 07:09:43;;;;;;;4.97;1.90;;;;;;;15.54;68.86;102063.69;4935136;29;20140;-87
2022/08/31 07:12:08;;;;;;;4.93;1.95;;;;;;;15.47;70.00;102057.72;4935579;29;20024;-88
2022/08/31 07:14:36;;;;;;;5.03;1.60;;;;;;;15.44;70.12;102056.34;4934109;29;20032;-87
2022/08/31 07:17:02;;;;;;;5.30;1.80;;;;;;;15.41;70.27;102058.75;4935164;29;20415;-87
2022/08/31 07:19:28;;;;;;;9.57;1.92;;;;;;;15.49;70.29;102055.59;4934505;29;20068;-87
2022/08/31 07:21:56;;;;;;;5.75;1.80;;;;;;;15.60;69.18;102057.25;4934812;29;20036;-90
2022/08/31 07:24:29;;;;;;;2.67;1.60;;;;;;;15.66;69.07;102051.88;4936169;29;20043;-85
2022/08/31 07:26:57;;;;;;;4.50;1.60;;;;;;;15.72;68.77;102051.66;4935461;29;20034;-85
2022/08/31 07:29:24;;;;;;;5.65;1.50;;;;;;;15.86;67.80;102064.72;4934485;29;20024;-86
2022/08/31 07:32:11;;;;;;;1.92;1.50;;;;;;;15.94;68.83;102069.63;5205362;23;20051;-85
2022/08/31 07:55:12;;;;;;;9.82;1.88;;;;;;;16.70;64.42;102069.28;6009629;23;20069;-88
2022/08/31 07:57:42;;;;;;;4.95;1.95;;;;;;;16.74;65.02;102068.47;4953342;28;20031;-88
2022/08/31 08:05:21;;;;;;;5.30;1.67;;;;;;;16.97;65.15;102065.53;5535138;23;20059;-88
2022/08/31 08:07:49;;;;;;;2.22;1.50;;;;;;;17.01;64.20;102059.28;4954383;28;20086;-89
2022/08/31 08:10:16;;;;;;;3.03;1.80;;;;;;;17.09;63.83;102069.59;4953848;28;20106;-89
2022/08/31 08:12:45;;;;;;;5.10;1.92;;;;;;;17.12;64.17;102070.94;4952491;28;20767;-89
2022/08/31 08:15:11;;;;;;;5.72;1.60;;;;;;;17.23;64.29;102072.56;4955136;28;20429;-88
2022/08/31 08:17:37;;;;;;;3.90;1.70;;;;;;;17.24;64.00;102076.06;4954144;28;20110;-89
2022/08/31 08:20:03;;;;;;;2.97;1.60;;;;;;;17.36;64.58;102087.41;4953542;28;20115;-87
2022/08/31 08:22:28;;;;;;;6.10;1.75;;;;;;;17.43;63.92;102080.91;4954657;28;20471;-90
2022/08/31 08:24:54;;;;;;;3.07;1.57;;;;;;;17.50;63.76;102081.47;4952554;28;20031;-90
2022/08/31 08:27:19;;;;;;;4.33;1.70;;;;;;;17.61;63.49;102083.06;4952912;29;20139;-90
2022/08/31 08:29:44;;;;;;;5.73;1.77;;;;;;;17.81;63.13;102084.06;4955718;28;20019;-89
2022/08/31 08:32:10;;;;;;;3.33;2.00;;;;;;;18.10;61.63;102088.88;4952637;29;20031;-89
2022/08/31 08:34:40;;;;;;;4.50;1.90;;;;;;;18.28;61.12;102080.09;4953936;28;20027;-89
2022/08/31 08:37:06;;;;;;;5.05;1.80;;;;;;;18.59;60.05;102074.50;4953887;28;20095;-89
2022/08/31 08:39:32;;;;;;;3.83;2.00;;;;;;;19.07;59.68;102089.34;4951736;28;20538;-90
2022/08/31 08:41:57;;;;;;;3.58;1.98;;;;;;;19.39;58.92;102095.31;4952809;28;20031;-89
2022/08/31 08:44:31;;;;;;;8.43;2.20;;;;;;;19.63;57.23;102087.19;4953544;28;20042;-89
2022/08/31 08:47:00;;;;;;;3.20;2.20;;;;;;;19.76;57.10;102093.84;4953748;28;20078;-90
2022/08/31 10:56:16;;;;;;;3.97;2.97;;;;;;;23.03;50.29;102032.22;5598624;23;20057;-88
2022/08/31 10:58:54;;;;;;;5.97;3.90;;;;;;;23.25;49.99;102050.53;4986633;28;20088;-89
2022/08/31 11:01:32;;;;;;;7.03;3.70;;;;;;;23.39;49.96;102051.22;4987309;28;20153;-87
2022/08/31 11:04:44;;;;;;;9.57;4.10;;;;;;;23.70;50.37;102055.00;4971884;28;20032;-89
2022/08/31 11:07:23;;;;;;;5.10;3.23;;;;;;;23.85;48.93;102057.28;4956677;29;20283;-89
2022/08/31 11:10:12;;;;;;;8.98;3.45;;;;;;;23.71;49.02;102051.16;4950726;29;20089;-90
2022/08/31 11:12:48;;;;;;;8.00;3.80;;;;;;;23.51;49.38;102047.09;4955393;28;20039;-88
2022/08/31 11:15:23;;;;;;;9.18;4.07;;;;;;;23.29;50.15;102051.50;4954454;28;20024;-87
2022/08/31 11:18:00;;;;;;;11.52;3.75;;;;;;;23.10;50.38;102052.53;4953604;28;20039;-88
2022/08/31 11:20:53;;;;;;;10.63;3.72;;;;;;;22.97;50.87;102054.22;4954684;29;20417;-88
2022/08/31 11:23:47;;;;;;;9.38;3.30;;;;;;;23.18;51.24;102050.16;4954759;29;20031;-87
2022/08/31 11:26:40;;;;;;;4.80;3.80;;;;;;;23.31;50.88;102054.75;4954108;29;20038;-87
2022/08/31 11:29:42;;;;;;;5.45;3.70;;;;;;;23.31;51.19;102043.81;4935379;29;20043;-87
2022/08/31 11:32:20;;;;;;;5.97;3.37;;;;;;;23.49;49.38;102046.59;4934728;29;20031;-87
2022/08/31 11:34:50;;;;;;;7.73;3.63;;;;;;;23.66;48.96;102032.16;4935628;29;20798;-87
2022/08/31 11:37:54;;;;;;;6.07;3.30;;;;;;;24.04;48.64;102031.59;4935580;29;20051;-87
2022/08/31 11:40:40;;;;;;;6.53;3.28;;;;;;;24.27;48.38;102037.75;4942505;29;20057;-87
2022/08/31 11:43:31;;;;;;;6.05;3.55;;;;;;;24.52;47.88;102029.81;4952989;29;20035;-87
2022/08/31 11:46:00;;;;;;;5.43;3.10;;;;;;;24.59;46.95;102027.38;4954184;29;20184;-87
2022/08/31 11:48:50;;;;;;;6.00;2.70;;;;;;;24.75;46.73;102033.16;4953357;28;20019;-87
2022/08/31 11:51:34;;;;;;;5.07;3.25;;;;;;;24.75;47.43;102032.38;4954030;29;20376;-88
2022/08/31 11:54:03;;;;;;;11.55;3.40;;;;;;;24.53;46.79;102030.63;4954021;29;20098;-87
2022/08/31 11:56:46;;;;;;;7.60;3.80;;;;;;;24.45;46.98;102013.88;4954124;28;20035;-87
2022/08/31 12:10:31;;;;;;;5.93;3.50;;;;;;;24.91;46.43;102005.25;5499774;23;20399;-87
2022/08/31 12:13:17;;;;;;;5.93;3.10;;;;;;;24.98;45.98;102007.50;4972899;28;20093;-88
2022/08/31 12:16:02;;;;;;;5.53;3.42;;;;;;;25.01;45.98;102002.16;4972780;28;20030;-87
2022/08/31 12:18:52;;;;;;;6.90;3.60;;;;;;;25.05;46.05;102000.34;4962385;28;20027;-87
2022/08/31 12:25:10;;;;;;;6.85;3.67;;;;;;;24.90;46.78;101982.50;4938001;28;20030;-87
2022/08/31 12:28:30;;;;;;;5.40;2.80;;;;;;;25.25;46.21;101990.56;4953885;29;20106;-87
2022/08/31 12:31:01;;;;;;;18.33;4.10;;;;;;;25.45;45.46;101992.94;4930728;29;20318;-87
2022/08/31 12:33:29;;;;;;;15.75;3.67;;;;;;;25.66;44.94;101992.97;4931960;29;20128;-88
2022/08/31 12:36:10;;;;;;;7.13;3.15;;;;;;;25.91;44.52;101993.91;4933276;29;20689;-88
2022/08/31 12:38:36;;;;;;;6.13;3.10;;;;;;;25.82;44.75;101991.22;4934320;29;20028;-88
2022/08/31 12:41:02;;;;;;;7.30;3.50;;;;;;;25.80;44.01;101984.47;4933729;29;20114;-87
2022/08/31 12:43:31;;;;;;;8.38;4.05;;;;;;;25.71;44.14;101981.78;4934484;29;20035;-88
2022/08/31 12:45:56;;;;;;;12.73;2.80;;;;;;;25.83;44.74;101976.34;4933929;28;20078;-87
2022/08/31 12:48:44;;;;;;;9.53;3.47;;;;;;;26.02;44.28;101983.31;4934301;29;20063;-87
2022/08/31 12:51:33;;;;;;;7.65;3.60;;;;;;;25.99;44.12;101968.31;4933406;29;20114;-88
2022/08/31 12:54:41;;;;;;;13.75;3.35;;;;;;;26.05;44.21;101970.84;4934365;29;20059;-87
2022/08/31 12:57:31;;;;;;;6.50;3.80;;;;;;;26.21;43.02;101962.81;4933633;29;20062;-87
2022/08/31 13:00:07;;;;;;;10.45;3.47;;;;;;;26.31;43.54;101967.88;4933627;29;20039;-87
2022/08/31 13:02:36;;;;;;;10.85;3.05;;;;;;;26.36;42.33;101962.19;4934607;28;20032;-88
2022/08/31 13:05:03;;;;;;;6.63;3.60;;;;;;;26.37;41.70;101966.53;4933788;29;20047;-87
2022/08/31 13:07:31;;;;;;;14.17;2.87;;;;;;;26.59;42.26;101961.78;4949840;28;20027;-87
2022/08/31 13:10:12;;;;;;;18.47;3.50;;;;;;;26.75;41.60;101948.97;4951251;28;20393;-89
2022/08/31 13:12:38;;;;;;;14.02;3.00;;;;;;;26.64;41.92;101950.56;4953220;29;20027;-89
2022/08/31 13:15:07;;;;;;;14.82;3.00;;;;;;;26.78;41.56;101947.47;4952662;28;20345;-88
2022/08/31 13:17:42;;;;;;;7.60;3.00;;;;;;;26.57;41.99;101947.56;4953125;28;20050;-88
2022/08/31 13:20:07;;;;;;;9.23;2.47;;;;;;;26.48;41.54;101939.44;4952313;28;20672;-88
2022/08/31 13:22:40;;;;;;;7.63;2.80;;;;;;;26.64;42.00;101956.06;4953190;29;20491;-88
2022/08/31 13:25:35;;;;;;;3.58;2.60;;;;;;;26.65;41.84;101949.44;4951046;29;20031;-87
2022/08/31 13:28:03;;;;;;;6.78;3.25;;;;;;;26.53;41.55;101950.22;4948644;28;20078;-88
2022/08/31 13:30:33;;;;;;;8.88;3.28;;;;;;;26.63;40.72;101953.66;4952226;29;20073;-88
2022/08/31 13:32:58;;;;;;;5.70;3.13;;;;;;;26.54;40.96;101945.50;4953001;28;20567;-88
2022/08/31 13:35:34;;;;;;;5.43;2.90;;;;;;;26.86;41.05;101943.03;4953771;29;20286;-88
2022/08/31 13:38:03;;;;;;;15.57;3.50;;;;;;;27.09;39.47;101931.59;4952824;28;20027;-89
2022/08/31 13:40:32;;;;;;;11.35;3.63;;;;;;;27.16;39.06;101937.31;4952436;29;20024;-88
2022/08/31 13:42:59;;;;;;;3.63;3.25;;;;;;;27.09;39.41;101931.59;4952004;29;20038;-88
2022/08/31 13:45:26;;;;;;;4.72;3.13;;;;;;;27.13;40.12;101941.53;4967853;28;20039;-89
2022/08/31 13:48:09;;;;;;;8.43;3.47;;;;;;;27.61;39.98;101933.56;4952311;28;20123;-88
2022/08/31 13:50:49;;;;;;;6.40;3.60;;;;;;;27.43;39.52;101934.97;4952431;28;20279;-88
2022/08/31 13:53:38;;;;;;;11.25;3.40;;;;;;;27.43;40.27;101940.47;4951288;29;20030;-88
2022/08/31 13:56:54;;;;;;;4.45;3.05;;;;;;;27.48;40.03;101926.50;4952350;28;20098;-88
2022/08/31 13:59:21;;;;;;;4.90;3.40;;;;;;;27.30;38.74;101928.69;4933602;28;20028;-88
2022/08/31 14:01:50;;;;;;;5.05;3.20;;;;;;;27.14;39.61;101929.41;4934555;29;20706;-87
2022/08/31 14:07:24;;;;;;;10.27;3.28;;;;;;;26.71;40.05;101926.06;4933293;29;20047;-88
2022/08/31 14:09:55;;;;;;;5.57;3.03;;;;;;;26.52;40.34;101923.88;4932288;29;20424;-88
2022/08/31 14:12:35;;;;;;;7.13;2.95;;;;;;;26.39;41.41;101927.72;4933246;29;20034;-88
2022/08/31 14:15:08;;;;;;;9.30;3.43;;;;;;;26.36;40.47;101915.47;4934670;29;20562;-88
2022/08/31 14:17:39;;;;;;;3.00;2.57;;;;;;;26.43;40.71;101915.72;4964463;28;20354;-88
2022/08/31 14:20:36;;;;;;;5.47;3.60;;;;;;;26.66;40.47;101920.00;4933300;29;20436;-88
2022/08/31 14:23:26;;;;;;;8.48;3.10;;;;;;;26.17;40.94;101926.19;4933044;29;20693;-88
2022/08/31 14:26:11;;;;;;;10.15;3.40;;;;;;;25.77;41.79;101922.78;4933319;29;20141;-88
2022/08/31 14:28:39;;;;;;;3.88;2.92;;;;;;;25.90;42.54;101920.91;4933288;29;20059;-88
2022/08/31 14:31:20;;;;;;;8.00;2.80;;;;;;;26.44;41.29;101911.84;4934724;29;20031;-88
2022/08/31 14:33:49;;;;;;;3.42;2.70;;;;;;;26.87;41.12;101917.16;4963850;28;20507;-88
2022/08/31 14:36:16;;;;;;;6.03;3.08;;;;;;;26.78;40.15;101919.19;4933572;28;20032;-87
2022/08/31 14:39:19;;;;;;;8.32;3.60;;;;;;;26.48;40.54;101917.44;5600435;23;20981;-88
2022/08/31 14:41:45;;;;;;;5.23;3.67;;;;;;;25.84;41.09;101890.13;4974627;28;20035;-87
2022/08/31 15:20:38;;;;;;;6.03;2.60;;;;;;;27.04;38.59;101900.41;5211958;23;20450;-88
2022/08/31 15:23:05;;;;;;;5.13;3.22;;;;;;;26.77;38.61;101890.88;4993098;28;20026;-88
2022/08/31 15:25:31;;;;;;;6.88;2.70;;;;;;;26.65;39.19;101899.16;4994099;28;20113;-88
2022/08/31 15:27:56;;;;;;;5.17;2.97;;;;;;;26.41;39.71;101890.53;4992329;28;20098;-88
2022/08/31 15:30:23;;;;;;;3.17;2.88;;;;;;;26.25;40.32;101895.88;4993324;28;20034;-88
2022/08/31 15:32:48;;;;;;;7.10;3.10;;;;;;;26.07;40.05;101894.44;4992902;28;20018;-87
2022/08/31 15:35:17;;;;;;;11.10;3.00;;;;;;;25.97;40.68;101887.41;4993563;28;20410;-87